sensor_id;sensor_type;location;lat;lon;timestamp;pressure;altitude;pressure_sealevel;temperature;humidity
72086;BME280;64750;52.134;5.424;2023-03-21T00:01:59;101816.44;;;9.25;95.45
72086;BME280;64750;52.134;5.424;2023-03-21T00:04:26;101804.22;;;9.24;95.78
72086;BME280;64750;52.134;5.424;2023-03-21T00:07:03;101811.28;;;9.22;95.68
72086;BME280;64750;52.134;5.424;2023-03-21T00:09:29;101810.44;;;9.21;95.78
72086;BME280;64750;52.134;5.424;2023-03-21T00:11:56;101804.34;;;9.21;95.68
72086;BME280;64750;52.134;5.424;2023-03-21T00:14:22;101801.75;;;9.19;95.69
72086;BME280;64750;52.134;5.424;2023-03-21T00:16:51;101802.63;;;9.19;95.69
72086;BME280;64750;52.134;5.424;2023-03-21T00:19:18;101808.72;;;9.20;95.90
72086;BME280;64750;52.134;5.424;2023-03-21T00:21:50;101799.03;;;9.22;95.86
72086;BME280;64750;52.134;5.424;2023-03-21T00:24:33;101804.28;;;9.22;95.66
72086;BME280;64750;52.134;5.424;2023-03-21T00:26:59;101792.88;;;9.23;95.75
72086;BME280;64750;52.134;5.424;2023-03-21T00:29:47;101793.00;;;9.20;95.53
72086;BME280;64750;52.134;5.424;2023-03-21T00:32:17;101800.78;;;9.22;95.77
72086;BME280;64750;52.134;5.424;2023-03-21T00:34:44;101798.31;;;9.18;95.62
72086;BME280;64750;52.134;5.424;2023-03-21T00:37:27;101796.66;;;9.16;95.56
72086;BME280;64750;52.134;5.424;2023-03-21T00:39:54;101795.81;;;9.15;95.90
72086;BME280;64750;52.134;5.424;2023-03-21T00:42:20;101798.44;;;9.15;95.69
72086;BME280;64750;52.134;5.424;2023-03-21T00:44:47;101789.69;;;9.15;95.71
72086;BME280;64750;52.134;5.424;2023-03-21T00:47:13;101789.69;;;9.15;95.75
72086;BME280;64750;52.134;5.424;2023-03-21T00:49:40;101780.91;;;9.16;95.91
72086;BME280;64750;52.134;5.424;2023-03-21T00:52:08;101782.63;;;9.17;95.93
72086;BME280;64750;52.134;5.424;2023-03-21T00:54:50;101788.72;;;9.17;95.92
72086;BME280;64750;52.134;5.424;2023-03-21T00:57:16;101783.47;;;9.17;95.87
72086;BME280;64750;52.134;5.424;2023-03-21T00:59:45;101772.97;;;9.17;95.74
72086;BME280;64750;52.134;5.424;2023-03-21T01:02:11;101770.34;;;9.17;96.09
72086;BME280;64750;52.134;5.424;2023-03-21T01:04:48;101769.44;;;9.18;95.68
72086;BME280;64750;52.134;5.424;2023-03-21T01:07:15;101766.81;;;9.18;95.61
72086;BME280;64750;52.134;5.424;2023-03-21T01:09:42;101762.50;;;9.17;95.63
72086;BME280;64750;52.134;5.424;2023-03-21T01:12:08;101755.53;;;9.16;95.64
72086;BME280;64750;52.134;5.424;2023-03-21T01:14:36;101752.91;;;9.16;95.88
72086;BME280;64750;52.134;5.424;2023-03-21T01:17:03;101750.25;;;9.18;95.70
72086;BME280;64750;52.134;5.424;2023-03-21T01:19:29;101747.63;;;9.18;95.89
72086;BME280;64750;52.134;5.424;2023-03-21T01:22:13;101745.03;;;9.16;95.67
72086;BME280;64750;52.134;5.424;2023-03-21T01:24:40;101751.16;;;9.17;95.62
72086;BME280;64750;52.134;5.424;2023-03-21T01:27:20;101747.72;;;9.15;95.80
72086;BME280;64750;52.134;5.424;2023-03-21T01:29:46;101745.03;;;9.16;95.70
72086;BME280;64750;52.134;5.424;2023-03-21T01:32:13;101745.03;;;9.16;95.80
72086;BME280;64750;52.134;5.424;2023-03-21T01:34:39;101744.19;;;9.16;95.70
72086;BME280;64750;52.134;5.424;2023-03-21T01:37:05;101745.03;;;9.16;95.76
72086;BME280;64750;52.134;5.424;2023-03-21T01:39:32;101732.72;;;9.18;95.78
72086;BME280;64750;52.134;5.424;2023-03-21T01:42:00;101734.44;;;9.19;95.87
72086;BME280;64750;52.134;5.424;2023-03-21T01:44:27;101727.47;;;9.18;95.73
72086;BME280;64750;52.134;5.424;2023-03-21T01:46:53;101735.34;;;9.18;95.82
72086;BME280;64750;52.134;5.424;2023-03-21T01:49:40;101730.09;;;9.18;95.64
72086;BME280;64750;52.134;5.424;2023-03-21T01:52:14;101731.91;;;9.16;95.88
72086;BME280;64750;52.134;5.424;2023-03-21T01:54:56;101721.50;;;9.15;95.66
72086;BME280;64750;52.134;5.424;2023-03-21T01:57:33;101724.06;;;9.16;95.59
72086;BME280;64750;52.134;5.424;2023-03-21T02:00:14;101714.44;;;9.17;95.85
72086;BME280;64750;52.134;5.424;2023-03-21T02:02:43;101705.69;;;9.16;95.81
72086;BME280;64750;52.134;5.424;2023-03-21T02:08:14;101696.06;;;9.17;95.66
72086;BME280;64750;52.134;5.424;2023-03-21T02:10:41;101704.78;;;9.17;95.78
72086;BME280;64750;52.134;5.424;2023-03-21T02:13:09;101698.63;;;9.18;95.58
72086;BME280;64750;52.134;5.424;2023-03-21T02:15:38;101690.81;;;9.17;95.55
72086;BME280;64750;52.134;5.424;2023-03-21T02:18:16;101694.44;;;9.14;95.44
72086;BME280;64750;52.134;5.424;2023-03-21T02:32:24;101684.13;;;9.10;95.62
72086;BME280;64750;52.134;5.424;2023-03-21T02:41:04;101677.06;;;9.12;95.12
72086;BME280;64750;52.134;5.424;2023-03-21T02:43:46;101674.50;;;9.10;95.38
72086;BME280;64750;52.134;5.424;2023-03-21T02:46:20;101671.88;;;9.10;95.39
72086;BME280;64750;52.134;5.424;2023-03-21T02:51:31;101671.00;;;9.10;95.44
72086;BME280;64750;52.134;5.424;2023-03-21T02:54:05;101671.88;;;9.10;95.38
72086;BME280;64750;52.134;5.424;2023-03-21T02:56:55;101666.66;;;9.09;95.44
72086;BME280;64750;52.134;5.424;2023-03-21T02:59:24;101671.00;;;9.10;95.45
72086;BME280;64750;52.134;5.424;2023-03-21T03:01:53;101664.78;;;9.12;95.56
72086;BME280;64750;52.134;5.424;2023-03-21T03:04:22;101661.38;;;9.10;95.30
72086;BME280;64750;52.134;5.424;2023-03-21T03:10:02;101666.63;;;9.10;95.14
72086;BME280;64750;52.134;5.424;2023-03-21T03:12:40;101652.66;;;9.10;95.21
72086;BME280;64750;52.134;5.424;2023-03-21T03:15:20;101660.44;;;9.11;95.16
72086;BME280;64750;52.134;5.424;2023-03-21T03:18:16;101659.53;;;9.12;95.41
72086;BME280;64750;52.134;5.424;2023-03-21T03:21:09;101659.59;;;9.11;94.94
72086;BME280;64750;52.134;5.424;2023-03-21T03:24:41;101658.81;;;9.09;95.08
72086;BME280;64750;52.134;5.424;2023-03-21T03:26:50;101659.66;;;9.09;94.93
72086;BME280;64750;52.134;5.424;2023-03-21T03:29:21;101657.06;;;9.09;94.87
72086;BME280;64750;52.134;5.424;2023-03-21T03:31:58;101650.03;;;9.10;94.75
72086;BME280;64750;52.134;5.424;2023-03-21T03:34:32;101657.06;;;9.09;94.99
72086;BME280;64750;52.134;5.424;2023-03-21T03:37:08;101652.72;;;9.08;94.86
72086;BME280;64750;52.134;5.424;2023-03-21T03:39:40;101657.06;;;9.09;95.01
72086;BME280;64750;52.134;5.424;2023-03-21T03:42:18;101655.19;;;9.11;95.03
72086;BME280;64750;52.134;5.424;2023-03-21T03:44:54;101654.28;;;9.12;94.85
72086;BME280;64750;52.134;5.424;2023-03-21T03:47:35;101650.81;;;9.12;94.74
72086;BME280;64750;52.134;5.424;2023-03-21T03:50:38;101651.66;;;9.12;94.76
72086;BME280;64750;52.134;5.424;2023-03-21T03:53:16;101649.91;;;9.13;94.74
72086;BME280;64750;52.134;5.424;2023-03-21T03:55:46;101646.41;;;9.12;94.97
72086;BME280;64750;52.134;5.424;2023-03-21T03:58:17;101649.03;;;9.12;94.71
72086;BME280;64750;52.134;5.424;2023-03-21T04:00:51;101636.84;;;9.11;94.85
72086;BME280;64750;52.134;5.424;2023-03-21T04:03:19;101641.31;;;9.09;94.60
72086;BME280;64750;52.134;5.424;2023-03-21T04:05:45;101635.16;;;9.10;94.84
72086;BME280;64750;52.134;5.424;2023-03-21T04:08:13;101639.47;;;9.11;94.67
72086;BME280;64750;52.134;5.424;2023-03-21T04:10:41;101636.81;;;9.13;94.67
72086;BME280;64750;52.134;5.424;2023-03-21T04:13:08;101638.56;;;9.12;94.95
72086;BME280;64750;52.134;5.424;2023-03-21T04:15:35;101628.06;;;9.12;94.77
72086;BME280;64750;52.134;5.424;2023-03-21T04:18:02;101628.06;;;9.12;94.55
72086;BME280;64750;52.134;5.424;2023-03-21T04:20:28;101628.88;;;9.14;94.88
72086;BME280;64750;52.134;5.424;2023-03-21T04:23:03;101617.56;;;9.12;94.52
72086;BME280;64750;52.134;5.424;2023-03-21T04:25:33;101614.03;;;9.13;94.49
72086;BME280;64750;52.134;5.424;2023-03-21T04:28:00;101627.06;;;9.15;94.41
72086;BME280;64750;52.134;5.424;2023-03-21T04:30:26;101620.09;;;9.15;94.64
72086;BME280;64750;52.134;5.424;2023-03-21T04:32:53;101628.97;;;9.11;94.55
72086;BME280;64750;52.134;5.424;2023-03-21T04:35:23;101624.66;;;9.10;94.37
72086;BME280;64750;52.134;5.424;2023-03-21T04:37:50;101623.72;;;9.11;94.65
72086;BME280;64750;52.134;5.424;2023-03-21T04:40:16;101626.31;;;9.13;94.64
72086;BME280;64750;52.134;5.424;2023-03-21T04:42:45;101622.81;;;9.12;94.59
72086;BME280;64750;52.134;5.424;2023-03-21T04:45:13;101618.44;;;9.13;94.34
72086;BME280;64750;52.134;5.424;2023-03-21T04:47:41;101610.56;;;9.13;94.39
72086;BME280;64750;52.134;5.424;2023-03-21T04:50:09;101609.63;;;9.14;94.50
72086;BME280;64750;52.134;5.424;2023-03-21T04:52:36;101610.56;;;9.13;94.39
72086;BME280;64750;52.134;5.424;2023-03-21T04:55:03;101604.38;;;9.14;94.43
72086;BME280;64750;52.134;5.424;2023-03-21T04:57:29;101607.88;;;9.14;94.38
72086;BME280;64750;52.134;5.424;2023-03-21T04:59:56;101609.63;;;9.14;94.33
72086;BME280;64750;52.134;5.424;2023-03-21T05:02:22;101613.13;;;9.14;94.29
72086;BME280;64750;52.134;5.424;2023-03-21T05:04:49;101609.63;;;9.14;93.96
72086;BME280;64750;52.134;5.424;2023-03-21T05:07:15;101612.41;;;9.11;94.10
72086;BME280;64750;52.134;5.424;2023-03-21T05:09:42;101613.31;;;9.10;93.99
72086;BME280;64750;52.134;5.424;2023-03-21T05:12:08;101621.09;;;9.11;94.22
72086;BME280;64750;52.134;5.424;2023-03-21T05:14:34;101622.03;;;9.10;94.07
72086;BME280;64750;52.134;5.424;2023-03-21T05:17:01;101620.25;;;9.11;93.84
72086;BME280;64750;52.134;5.424;2023-03-21T05:19:30;101619.41;;;9.10;93.96
72086;BME280;64750;52.134;5.424;2023-03-21T05:22:06;101610.69;;;9.10;93.83
72086;BME280;64750;52.134;5.424;2023-03-21T05:24:33;101609.91;;;9.08;93.83
72086;BME280;64750;52.134;5.424;2023-03-21T05:27:00;101613.31;;;9.10;93.94
72086;BME280;64750;52.134;5.424;2023-03-21T05:29:29;101608.13;;;9.08;93.73
72086;BME280;64750;52.134;5.424;2023-03-21T05:31:57;101606.34;;;9.09;93.62
72086;BME280;64750;52.134;5.424;2023-03-21T05:34:23;101601.97;;;9.09;93.75
72086;BME280;64750;52.134;5.424;2023-03-21T05:36:50;101594.88;;;9.11;93.78
72086;BME280;64750;52.134;5.424;2023-03-21T05:39:17;101593.97;;;9.12;93.59
72086;BME280;64750;52.134;5.424;2023-03-21T05:41:43;101596.59;;;9.12;93.42
72086;BME280;64750;52.134;5.424;2023-03-21T05:44:10;101594.78;;;9.14;93.62
72086;BME280;64750;52.134;5.424;2023-03-21T05:46:36;101599.13;;;9.14;93.37
72086;BME280;64750;52.134;5.424;2023-03-21T05:49:03;101598.31;;;9.13;93.51
72086;BME280;64750;52.134;5.424;2023-03-21T05:51:29;101597.38;;;9.14;93.16
72086;BME280;64750;52.134;5.424;2023-03-21T05:53:56;101599.13;;;9.14;93.35
72086;BME280;64750;52.134;5.424;2023-03-21T05:56:22;101599.13;;;9.14;93.08
72086;BME280;64750;52.134;5.424;2023-03-21T05:58:49;101589.53;;;9.14;93.29
72086;BME280;64750;52.134;5.424;2023-03-21T06:01:15;101592.16;;;9.14;92.96
72086;BME280;64750;52.134;5.424;2023-03-21T06:03:42;101594.78;;;9.14;92.93
72086;BME280;64750;52.134;5.424;2023-03-21T06:06:08;101591.22;;;9.15;93.09
72086;BME280;64750;52.134;5.424;2023-03-21T06:08:35;101588.53;;;9.17;92.83
72086;BME280;64750;52.134;5.424;2023-03-21T06:11:02;101591.22;;;9.15;92.86
72086;BME280;64750;52.134;5.424;2023-03-21T06:13:28;101590.38;;;9.15;92.87
72086;BME280;64750;52.134;5.424;2023-03-21T06:15:56;101591.28;;;9.14;92.79
72086;BME280;64750;52.134;5.424;2023-03-21T06:18:22;101581.66;;;9.14;92.86
72086;BME280;64750;52.134;5.424;2023-03-21T06:20:49;101589.53;;;9.14;92.88
72086;BME280;64750;52.134;5.424;2023-03-21T06:23:15;101585.13;;;9.15;92.68
72086;BME280;64750;52.134;5.424;2023-03-21T06:25:43;101588.66;;;9.14;92.77
72086;BME280;64750;52.134;5.424;2023-03-21T06:28:09;101586.03;;;9.14;92.52
72086;BME280;64750;52.134;5.424;2023-03-21T06:30:35;101584.38;;;9.11;92.52
72086;BME280;64750;52.134;5.424;2023-03-21T06:33:02;101590.50;;;9.12;92.49
72086;BME280;64750;52.134;5.424;2023-03-21T06:35:28;101586.09;;;9.12;92.46
72086;BME280;64750;52.134;5.424;2023-03-21T06:37:55;101590.50;;;9.12;92.56
72086;BME280;64750;52.134;5.424;2023-03-21T06:40:23;101580.94;;;9.11;92.68
72086;BME280;64750;52.134;5.424;2023-03-21T06:42:50;101591.41;;;9.11;92.55
72086;BME280;64750;52.134;5.424;2023-03-21T06:45:17;101591.34;;;9.12;92.63
72086;BME280;64750;52.134;5.424;2023-03-21T06:47:43;101597.50;;;9.11;92.42
72086;BME280;64750;52.134;5.424;2023-03-21T06:50:10;101593.13;;;9.12;92.49
72086;BME280;64750;52.134;5.424;2023-03-21T06:52:37;101592.22;;;9.13;92.45
72086;BME280;64750;52.134;5.424;2023-03-21T06:55:03;101600.84;;;9.15;92.67
72086;BME280;64750;52.134;5.424;2023-03-21T06:57:30;101598.16;;;9.16;92.33
72086;BME280;64750;52.134;5.424;2023-03-21T06:59:56;101595.53;;;9.16;92.44
72086;BME280;64750;52.134;5.424;2023-03-21T07:02:23;101594.63;;;9.17;92.38
72086;BME280;64750;52.134;5.424;2023-03-21T07:04:49;101595.50;;;9.18;92.50
72086;BME280;64750;52.134;5.424;2023-03-21T07:07:16;101591.09;;;9.18;92.45
72086;BME280;64750;52.134;5.424;2023-03-21T07:09:42;101594.63;;;9.17;92.39
72086;BME280;64750;52.134;5.424;2023-03-21T07:12:08;101591.94;;;9.19;92.47
72086;BME280;64750;52.134;5.424;2023-03-21T07:14:36;101593.72;;;9.18;92.58
72086;BME280;64750;52.134;5.424;2023-03-21T07:17:02;101591.94;;;9.19;92.46
72086;BME280;64750;52.134;5.424;2023-03-21T07:19:29;101590.19;;;9.19;92.35
72086;BME280;64750;52.134;5.424;2023-03-21T07:21:56;101599.88;;;9.17;92.34
72086;BME280;64750;52.134;5.424;2023-03-21T07:24:22;101601.72;;;9.15;92.51
72086;BME280;64750;52.134;5.424;2023-03-21T07:26:48;101602.50;;;9.17;92.54
72086;BME280;64750;52.134;5.424;2023-03-21T07:29:15;101597.31;;;9.16;92.41
72086;BME280;64750;52.134;5.424;2023-03-21T07:31:42;101596.47;;;9.15;92.50
72086;BME280;64750;52.134;5.424;2023-03-21T07:34:09;101600.78;;;9.16;92.45
72086;BME280;64750;52.134;5.424;2023-03-21T07:36:35;101603.41;;;9.16;92.73
72086;BME280;64750;52.134;5.424;2023-03-21T07:39:02;101599.88;;;9.17;92.75
72086;BME280;64750;52.134;5.424;2023-03-21T07:41:29;101598.97;;;9.18;92.52
72086;BME280;64750;52.134;5.424;2023-03-21T07:43:56;101594.63;;;9.17;92.78
72086;BME280;64750;52.134;5.424;2023-03-21T07:46:23;101594.63;;;9.17;92.73
72086;BME280;64750;52.134;5.424;2023-03-21T07:48:49;101591.16;;;9.17;92.95
72086;BME280;64750;52.134;5.424;2023-03-21T07:51:16;101592.81;;;9.19;92.79
72086;BME280;64750;52.134;5.424;2023-03-21T07:53:42;101588.47;;;9.18;92.76
72086;BME280;64750;52.134;5.424;2023-03-21T07:56:13;101584.03;;;9.21;92.87
72086;BME280;64750;52.134;5.424;2023-03-21T07:58:41;101579.53;;;9.23;92.92
72086;BME280;64750;52.134;5.424;2023-03-21T08:01:07;101575.09;;;9.25;92.84
72086;BME280;64750;52.134;5.424;2023-03-21T08:03:33;101570.66;;;9.27;92.90
72086;BME280;64750;52.134;5.424;2023-03-21T08:06:00;101572.34;;;9.28;92.75
72086;BME280;64750;52.134;5.424;2023-03-21T08:08:26;101568.78;;;9.29;92.82
72086;BME280;64750;52.134;5.424;2023-03-21T08:10:53;101562.63;;;9.30;92.80
72086;BME280;64750;52.134;5.424;2023-03-21T08:13:19;101569.59;;;9.31;92.87
72086;BME280;64750;52.134;5.424;2023-03-21T08:15:46;101566.06;;;9.32;92.71
72086;BME280;64750;52.134;5.424;2023-03-21T08:18:12;101567.75;;;9.33;92.73
72086;BME280;64750;52.134;5.424;2023-03-21T08:20:38;101579.09;;;9.33;92.82
72086;BME280;64750;52.134;5.424;2023-03-21T08:23:05;101570.31;;;9.34;92.58
72086;BME280;64750;52.134;5.424;2023-03-21T08:25:31;101574.69;;;9.34;92.61
72086;BME280;64750;52.134;5.424;2023-03-21T08:27:58;101564.19;;;9.34;92.89
72086;BME280;64750;52.134;5.424;2023-03-21T08:30:26;101547.47;;;9.36;92.76
72086;BME280;64750;52.134;5.424;2023-03-21T08:32:58;101550.97;;;9.37;92.86
72086;BME280;64750;52.134;5.424;2023-03-21T08:35:27;101551.72;;;9.39;92.82
72086;BME280;64750;52.134;5.424;2023-03-21T08:37:54;101548.34;;;9.37;92.83
72086;BME280;64750;52.134;5.424;2023-03-21T08:40:21;101550.97;;;9.37;92.87
72086;BME280;64750;52.134;5.424;2023-03-21T08:42:47;101550.03;;;9.38;92.86
72086;BME280;64750;52.134;5.424;2023-03-21T08:45:15;101552.59;;;9.40;92.81
72086;BME280;64750;52.134;5.424;2023-03-21T08:47:42;101551.66;;;9.41;92.90
72086;BME280;64750;52.134;5.424;2023-03-21T08:50:11;101553.31;;;9.43;92.91
72086;BME280;64750;52.134;5.424;2023-03-21T08:52:39;101542.88;;;9.42;92.92
72086;BME280;64750;52.134;5.424;2023-03-21T08:55:06;101542.81;;;9.43;92.68
72086;BME280;64750;52.134;5.424;2023-03-21T08:57:33;101529.69;;;9.43;92.49
72086;BME280;64750;52.134;5.424;2023-03-21T08:59:59;101525.22;;;9.45;92.60
72086;BME280;64750;52.134;5.424;2023-03-21T09:02:26;101520.00;;;9.45;92.25
72086;BME280;64750;52.134;5.424;2023-03-21T09:04:52;101519.84;;;9.48;92.23
72086;BME280;64750;52.134;5.424;2023-03-21T09:07:20;101518.91;;;9.49;92.26
72086;BME280;64750;52.134;5.424;2023-03-21T09:09:47;101518.00;;;9.50;92.33
72086;BME280;64750;52.134;5.424;2023-03-21T09:12:28;101508.31;;;9.52;92.06
72086;BME280;64750;52.134;5.424;2023-03-21T09:14:54;101508.31;;;9.52;92.34
72086;BME280;64750;52.134;5.424;2023-03-21T09:17:21;101503.09;;;9.51;92.25
72086;BME280;64750;52.134;5.424;2023-03-21T09:19:48;101505.69;;;9.52;92.03
72086;BME280;64750;52.134;5.424;2023-03-21T09:22:15;101503.91;;;9.53;92.10
72086;BME280;64750;52.134;5.424;2023-03-21T09:24:46;101498.66;;;9.53;92.05
72086;BME280;64750;52.134;5.424;2023-03-21T09:27:17;101507.31;;;9.55;92.18
72086;BME280;64750;52.134;5.424;2023-03-21T09:29:48;101499.38;;;9.57;91.88
72086;BME280;64750;52.134;5.424;2023-03-21T09:32:15;101487.94;;;9.58;91.67
72086;BME280;64750;52.134;5.424;2023-03-21T09:34:43;101490.41;;;9.61;91.62
72086;BME280;64750;52.134;5.424;2023-03-21T09:37:11;101485.09;;;9.62;91.72
72086;BME280;64750;52.134;5.424;2023-03-21T09:39:39;101485.97;;;9.63;91.71
72086;BME280;64750;52.134;5.424;2023-03-21T09:42:24;101482.41;;;9.64;91.58
72086;BME280;64750;52.134;5.424;2023-03-21T09:47:47;101481.41;;;9.66;91.52
72086;BME280;64750;52.134;5.424;2023-03-21T09:50:23;101476.94;;;9.68;91.43
72086;BME280;64750;52.134;5.424;2023-03-21T09:53:01;101478.56;;;9.71;91.59
72086;BME280;64750;52.134;5.424;2023-03-21T09:55:32;101483.75;;;9.73;91.57
72086;BME280;64750;52.134;5.424;2023-03-21T10:00:32;101482.75;;;9.75;91.40
72086;BME280;64750;52.134;5.424;2023-03-21T10:03:04;101474.75;;;9.78;91.37
72086;BME280;64750;52.134;5.424;2023-03-21T10:05:33;101479.94;;;9.80;91.70
72086;BME280;64750;52.134;5.424;2023-03-21T10:10:46;101477.22;;;9.81;91.29
72086;BME280;64750;52.134;5.424;2023-03-21T10:13:19;101478.94;;;9.82;91.09
72086;BME280;64750;52.134;5.424;2023-03-21T10:15:46;101471.06;;;9.82;90.86
72086;BME280;64750;52.134;5.424;2023-03-21T10:18:21;101476.16;;;9.85;90.83
72086;BME280;64750;52.134;5.424;2023-03-21T10:20:49;101486.53;;;9.89;90.91
72086;BME280;64750;52.134;5.424;2023-03-21T10:23:19;101475.88;;;9.92;90.92
72086;BME280;64750;52.134;5.424;2023-03-21T10:25:53;101486.25;;;9.95;90.93
72086;BME280;64750;52.134;5.424;2023-03-21T10:28:25;101469.50;;;9.97;90.67
72086;BME280;64750;52.134;5.424;2023-03-21T10:30:58;101462.47;;;9.98;90.35
72086;BME280;64750;52.134;5.424;2023-03-21T10:33:31;101463.25;;;10.00;90.05
72086;BME280;64750;52.134;5.424;2023-03-21T10:36:02;101460.47;;;10.03;89.98
72086;BME280;64750;52.134;5.424;2023-03-21T10:38:30;101457.66;;;10.06;90.06
72086;BME280;64750;52.134;5.424;2023-03-21T10:40:57;101455.75;;;10.10;89.72
72086;BME280;64750;52.134;5.424;2023-03-21T10:45:55;101443.34;;;10.13;89.87
72086;BME280;64750;52.134;5.424;2023-03-21T10:48:23;101444.97;;;10.16;89.52
72086;BME280;64750;52.134;5.424;2023-03-21T10:50:53;101445.75;;;10.18;89.21
72086;BME280;64750;52.134;5.424;2023-03-21T10:53:28;101442.88;;;10.23;88.97
72086;BME280;64750;52.134;5.424;2023-03-21T10:55:59;101441.75;;;10.28;89.09
72086;BME280;64750;52.134;5.424;2023-03-21T10:58:29;101447.69;;;10.32;88.86
72086;BME280;64750;52.134;5.424;2023-03-21T11:01:02;101452.78;;;10.35;88.53
72086;BME280;64750;52.134;5.424;2023-03-21T11:03:36;101453.66;;;10.36;88.00
72086;BME280;64750;52.134;5.424;2023-03-21T11:06:22;101444.78;;;10.38;87.77
72086;BME280;64750;52.134;5.424;2023-03-21T11:09:04;101443.84;;;10.39;88.02
72086;BME280;64750;52.134;5.424;2023-03-21T11:11:37;101441.13;;;10.41;87.68
72086;BME280;64750;52.134;5.424;2023-03-21T11:14:06;101439.22;;;10.44;87.75
72086;BME280;64750;52.134;5.424;2023-03-21T11:16:42;101437.38;;;10.46;87.44
72086;BME280;64750;52.134;5.424;2023-03-21T11:19:25;101445.09;;;10.49;87.58
72086;BME280;64750;52.134;5.424;2023-03-21T11:21:55;101448.41;;;10.53;87.48
72086;BME280;64750;52.134;5.424;2023-03-21T11:24:22;101441.31;;;10.55;87.49
72086;BME280;64750;52.134;5.424;2023-03-21T11:26:49;101442.03;;;10.59;87.41
72086;BME280;64750;52.134;5.424;2023-03-21T11:29:31;101434.75;;;10.64;87.66
72086;BME280;64750;52.134;5.424;2023-03-21T11:32:22;101434.50;;;10.69;87.90
72086;BME280;64750;52.134;5.424;2023-03-21T11:35:00;101421.97;;;10.74;87.05
72086;BME280;64750;52.134;5.424;2023-03-21T11:37:32;101420.13;;;10.76;86.41
72086;BME280;64750;52.134;5.424;2023-03-21T11:40:19;101427.84;;;10.79;86.39
72086;BME280;64750;52.134;5.424;2023-03-21T11:45:38;101407.41;;;10.84;86.35
72086;BME280;64750;52.134;5.424;2023-03-21T11:48:21;101413.53;;;10.85;85.90
72086;BME280;64750;52.134;5.424;2023-03-21T11:50:50;101409.94;;;10.86;85.80
72086;BME280;64750;52.134;5.424;2023-03-21T11:53:36;101400.31;;;10.86;85.28
72086;BME280;64750;52.134;5.424;2023-03-21T11:56:09;101406.31;;;10.88;85.10
72086;BME280;64750;52.134;5.424;2023-03-21T12:07:02;101404.38;;;10.92;84.96
72086;BME280;64750;52.134;5.424;2023-03-21T12:09:40;101403.38;;;10.94;84.90
72086;BME280;64750;52.134;5.424;2023-03-21T12:12:33;101405.06;;;10.95;85.05
72086;BME280;64750;52.134;5.424;2023-03-21T12:15:17;101407.63;;;10.97;84.72
72086;BME280;64750;52.134;5.424;2023-03-21T12:18:00;101396.16;;;10.98;84.58
72086;BME280;64750;52.134;5.424;2023-03-21T12:20:58;101384.56;;;11.02;84.61
72086;BME280;64750;52.134;5.424;2023-03-21T12:34:42;101389.50;;;11.08;84.78
72086;BME280;64750;52.134;5.424;2023-03-21T12:39:47;101364.56;;;11.15;83.98
72086;BME280;64750;52.134;5.424;2023-03-21T12:42:43;101370.56;;;11.18;84.10
72086;BME280;64750;52.134;5.424;2023-03-21T12:45:16;101375.84;;;11.18;83.99
72086;BME280;64750;52.134;5.424;2023-03-21T12:47:51;101369.56;;;11.20;83.90
72086;BME280;64750;52.134;5.424;2023-03-21T12:50:33;101372.88;;;11.24;83.96
72086;BME280;64750;52.134;5.424;2023-03-21T12:55:49;101357.53;;;11.32;82.60
72086;BME280;64750;52.134;5.424;2023-03-21T12:58:19;101361.78;;;11.35;81.69
72086;BME280;64750;52.134;5.424;2023-03-21T13:00:54;101367.38;;;11.44;81.17
72086;BME280;64750;52.134;5.424;2023-03-21T13:03:30;101361.94;;;11.47;80.98
72086;BME280;64750;52.134;5.424;2023-03-21T13:06:09;101357.09;;;11.56;81.21
72086;BME280;64750;52.134;5.424;2023-03-21T13:08:40;101350.94;;;11.71;81.85
72086;BME280;64750;52.134;5.424;2023-03-21T13:11:13;101346.13;;;11.79;80.19
72086;BME280;64750;52.134;5.424;2023-03-21T13:13:50;101341.09;;;11.75;79.66
72086;BME280;64750;52.134;5.424;2023-03-21T13:24:22;101324.94;;;11.97;77.75
72086;BME280;64750;52.134;5.424;2023-03-21T13:26:54;101326.47;;;12.01;77.24
72086;BME280;64750;52.134;5.424;2023-03-21T13:29:30;101314.91;;;12.04;75.94
72086;BME280;64750;52.134;5.424;2023-03-21T13:32:08;101315.94;;;12.01;75.31
72086;BME280;64750;52.134;5.424;2023-03-21T13:34:37;101314.22;;;12.00;74.68
72086;BME280;64750;52.134;5.424;2023-03-21T13:37:04;101310.00;;;11.97;74.32
72086;BME280;64750;52.134;5.424;2023-03-21T13:39:31;101314.38;;;11.97;73.89
72086;BME280;64750;52.134;5.424;2023-03-21T13:42:03;101322.88;;;12.02;74.03
72086;BME280;64750;52.134;5.424;2023-03-21T13:44:43;101318.13;;;12.09;74.45
72086;BME280;64750;52.134;5.424;2023-03-21T13:55:35;101303.16;;;12.09;73.48
72086;BME280;64750;52.134;5.424;2023-03-21T13:58:22;101301.28;;;12.11;73.54
72086;BME280;64750;52.134;5.424;2023-03-21T14:01:25;101297.03;;;12.09;73.34
72086;BME280;64750;52.134;5.424;2023-03-21T14:03:58;101293.53;;;12.08;73.03
72086;BME280;64750;52.134;5.424;2023-03-21T14:06:32;101281.41;;;12.06;72.57
72086;BME280;64750;52.134;5.424;2023-03-21T14:09:00;101288.72;;;12.01;72.97
72086;BME280;64750;52.134;5.424;2023-03-21T14:11:28;101288.06;;;11.97;73.28
72086;BME280;64750;52.134;5.424;2023-03-21T14:13:58;101288.06;;;11.97;73.18
72086;BME280;64750;52.134;5.424;2023-03-21T14:16:26;101283.66;;;11.97;73.36
72086;BME280;64750;52.134;5.424;2023-03-21T14:19:01;101288.72;;;12.01;73.60
72086;BME280;64750;52.134;5.424;2023-03-21T14:21:32;101288.72;;;12.01;72.98
72086;BME280;64750;52.134;5.424;2023-03-21T14:24:04;101279.22;;;11.98;73.67
72086;BME280;64750;52.134;5.424;2023-03-21T14:26:39;101282.78;;;11.97;73.47
72086;BME280;64750;52.134;5.424;2023-03-21T14:29:07;101282.09;;;11.93;72.99
72086;BME280;64750;52.134;5.424;2023-03-21T14:31:52;101280.50;;;11.91;73.43
72086;BME280;64750;52.134;5.424;2023-03-21T14:34:20;101272.59;;;11.91;74.06
72086;BME280;64750;52.134;5.424;2023-03-21T14:36:47;101274.28;;;11.92;73.93
72086;BME280;64750;52.134;5.424;2023-03-21T14:39:28;101264.59;;;11.92;74.04